sensor_id;sensor_type;location;lat;lon;timestamp;P1;durP1;ratioP1;P2;durP2;ratioP2
62574;SDS011;53112;45.602;11.904;2023-03-01T00:02:01;15.70;;;8.63;;
62574;SDS011;53112;45.602;11.904;2023-03-01T00:04:27;18.42;;;9.18;;
62574;SDS011;53112;45.602;11.904;2023-03-01T00:06:53;17.88;;;8.50;;
62574;SDS011;53112;45.602;11.904;2023-03-01T00:09:19;18.27;;;9.05;;
62574;SDS011;53112;45.602;11.904;2023-03-01T00:11:44;18.58;;;9.25;;
62574;SDS011;53112;45.602;11.904;2023-03-01T00:14:10;19.48;;;9.32;;
62574;SDS011;53112;45.602;11.904;2023-03-01T00:16:37;18.35;;;8.82;;
62574;SDS011;53112;45.602;11.904;2023-03-01T00:19:05;17.98;;;8.98;;
62574;SDS011;53112;45.602;11.904;2023-03-01T00:21:34;15.77;;;9.10;;
62574;SDS011;53112;45.602;11.904;2023-03-01T00:24:00;16.75;;;8.75;;
62574;SDS011;53112;45.602;11.904;2023-03-01T00:26:27;18.48;;;8.63;;
62574;SDS011;53112;45.602;11.904;2023-03-01T00:28:53;18.10;;;9.38;;
62574;SDS011;53112;45.602;11.904;2023-03-01T00:31:21;18.73;;;9.32;;
62574;SDS011;53112;45.602;11.904;2023-03-01T00:33:48;14.85;;;8.23;;
62574;SDS011;53112;45.602;11.904;2023-03-01T00:36:17;17.77;;;8.82;;
62574;SDS011;53112;45.602;11.904;2023-03-01T00:38:43;17.25;;;9.23;;
62574;SDS011;53112;45.602;11.904;2023-03-01T00:41:11;18.70;;;9.48;;
62574;SDS011;53112;45.602;11.904;2023-03-01T00:43:39;17.60;;;9.20;;
62574;SDS011;53112;45.602;11.904;2023-03-01T00:46:06;17.00;;;8.70;;
62574;SDS011;53112;45.602;11.904;2023-03-01T00:48:35;17.75;;;8.70;;
62574;SDS011;53112;45.602;11.904;2023-03-01T00:51:05;15.45;;;8.38;;
62574;SDS011;53112;45.602;11.904;2023-03-01T00:53:31;15.55;;;8.70;;
62574;SDS011;53112;45.602;11.904;2023-03-01T00:55:57;16.17;;;8.57;;
62574;SDS011;53112;45.602;11.904;2023-03-01T00:58:23;18.08;;;9.10;;
62574;SDS011;53112;45.602;11.904;2023-03-01T01:00:49;15.38;;;8.15;;
62574;SDS011;53112;45.602;11.904;2023-03-01T01:03:15;15.65;;;8.45;;
62574;SDS011;53112;45.602;11.904;2023-03-01T01:05:41;16.48;;;8.40;;
62574;SDS011;53112;45.602;11.904;2023-03-01T01:08:07;18.15;;;9.27;;
62574;SDS011;53112;45.602;11.904;2023-03-01T01:10:33;16.60;;;8.30;;
62574;SDS011;53112;45.602;11.904;2023-03-01T01:12:59;17.33;;;8.30;;
62574;SDS011;53112;45.602;11.904;2023-03-01T01:15:25;17.10;;;8.50;;
62574;SDS011;53112;45.602;11.904;2023-03-01T01:17:51;17.55;;;8.35;;
62574;SDS011;53112;45.602;11.904;2023-03-01T01:20:17;13.68;;;7.60;;
62574;SDS011;53112;45.602;11.904;2023-03-01T01:22:43;14.65;;;8.23;;
62574;SDS011;53112;45.602;11.904;2023-03-01T01:25:09;17.35;;;8.43;;
62574;SDS011;53112;45.602;11.904;2023-03-01T01:27:35;16.35;;;8.35;;
62574;SDS011;53112;45.602;11.904;2023-03-01T01:30:02;15.05;;;8.27;;
62574;SDS011;53112;45.602;11.904;2023-03-01T01:32:29;15.32;;;8.15;;
62574;SDS011;53112;45.602;11.904;2023-03-01T01:34:55;14.98;;;8.27;;
62574;SDS011;53112;45.602;11.904;2023-03-01T01:37:21;18.08;;;8.02;;
62574;SDS011;53112;45.602;11.904;2023-03-01T01:39:46;15.18;;;7.78;;
62574;SDS011;53112;45.602;11.904;2023-03-01T01:42:16;18.15;;;8.45;;
62574;SDS011;53112;45.602;11.904;2023-03-01T01:44:45;17.35;;;7.60;;
62574;SDS011;53112;45.602;11.904;2023-03-01T01:47:20;16.75;;;8.73;;
62574;SDS011;53112;45.602;11.904;2023-03-01T01:49:48;15.70;;;8.30;;
62574;SDS011;53112;45.602;11.904;2023-03-01T01:52:21;17.70;;;8.82;;
62574;SDS011;53112;45.602;11.904;2023-03-01T01:55:08;17.25;;;8.75;;
62574;SDS011;53112;45.602;11.904;2023-03-01T01:57:37;17.58;;;8.68;;
62574;SDS011;53112;45.602;11.904;2023-03-01T02:00:17;17.02;;;8.75;;
62574;SDS011;53112;45.602;11.904;2023-03-01T02:02:48;17.13;;;8.88;;
62574;SDS011;53112;45.602;11.904;2023-03-01T02:08:13;19.65;;;9.93;;
62574;SDS011;53112;45.602;11.904;2023-03-01T02:10:41;19.00;;;9.35;;
62574;SDS011;53112;45.602;11.904;2023-03-01T02:13:07;18.65;;;9.40;;
62574;SDS011;53112;45.602;11.904;2023-03-01T02:15:35;17.20;;;9.20;;
62574;SDS011;53112;45.602;11.904;2023-03-01T02:18:02;19.02;;;10.23;;
62574;SDS011;53112;45.602;11.904;2023-03-01T02:23:11;18.40;;;9.68;;
62574;SDS011;53112;45.602;11.904;2023-03-01T02:25:43;19.48;;;9.63;;
62574;SDS011;53112;45.602;11.904;2023-03-01T02:28:22;19.27;;;9.77;;
62574;SDS011;53112;45.602;11.904;2023-03-01T02:31:03;18.05;;;9.35;;
62574;SDS011;53112;45.602;11.904;2023-03-01T02:34:13;17.08;;;8.95;;
62574;SDS011;53112;45.602;11.904;2023-03-01T02:36:48;19.10;;;9.30;;
62574;SDS011;53112;45.602;11.904;2023-03-01T02:39:20;18.50;;;9.48;;
62574;SDS011;53112;45.602;11.904;2023-03-01T02:41:51;18.33;;;9.65;;
62574;SDS011;53112;45.602;11.904;2023-03-01T02:44:20;17.70;;;8.38;;
62574;SDS011;53112;45.602;11.904;2023-03-01T02:46:48;17.73;;;8.77;;
62574;SDS011;53112;45.602;11.904;2023-03-01T02:49:20;17.65;;;8.80;;
62574;SDS011;53112;45.602;11.904;2023-03-01T02:54:48;17.75;;;9.30;;
62574;SDS011;53112;45.602;11.904;2023-03-01T02:57:22;15.43;;;8.60;;
62574;SDS011;53112;45.602;11.904;2023-03-01T02:59:50;17.05;;;8.75;;
62574;SDS011;53112;45.602;11.904;2023-03-01T03:07:58;17.13;;;9.10;;
62574;SDS011;53112;45.602;11.904;2023-03-01T03:10:27;18.63;;;8.98;;
62574;SDS011;53112;45.602;11.904;2023-03-01T03:12:59;14.13;;;7.70;;
62574;SDS011;53112;45.602;11.904;2023-03-01T03:15:31;18.10;;;8.68;;
62574;SDS011;53112;45.602;11.904;2023-03-01T03:18:01;15.80;;;8.05;;
62574;SDS011;53112;45.602;11.904;2023-03-01T03:20:29;16.10;;;8.13;;
62574;SDS011;53112;45.602;11.904;2023-03-01T03:22:57;13.95;;;7.65;;
62574;SDS011;53112;45.602;11.904;2023-03-01T03:25:24;14.85;;;7.93;;
62574;SDS011;53112;45.602;11.904;2023-03-01T03:27:51;15.38;;;7.97;;
62574;SDS011;53112;45.602;11.904;2023-03-01T03:30:21;16.88;;;8.15;;
62574;SDS011;53112;45.602;11.904;2023-03-01T03:32:49;18.30;;;7.95;;
62574;SDS011;53112;45.602;11.904;2023-03-01T03:37:57;16.27;;;8.25;;
62574;SDS011;53112;45.602;11.904;2023-03-01T03:40:33;13.87;;;7.73;;
62574;SDS011;53112;45.602;11.904;2023-03-01T03:43:03;13.82;;;7.78;;
62574;SDS011;53112;45.602;11.904;2023-03-01T03:45:31;17.30;;;7.70;;
62574;SDS011;53112;45.602;11.904;2023-03-01T03:47:58;14.10;;;7.38;;
62574;SDS011;53112;45.602;11.904;2023-03-01T03:50:25;13.75;;;7.25;;
62574;SDS011;53112;45.602;11.904;2023-03-01T03:52:51;16.33;;;8.00;;
62574;SDS011;53112;45.602;11.904;2023-03-01T03:55:18;14.40;;;7.47;;
62574;SDS011;53112;45.602;11.904;2023-03-01T03:57:44;13.75;;;7.68;;
62574;SDS011;53112;45.602;11.904;2023-03-01T04:00:20;13.57;;;7.55;;
62574;SDS011;53112;45.602;11.904;2023-03-01T04:02:49;14.48;;;7.85;;
62574;SDS011;53112;45.602;11.904;2023-03-01T04:05:16;14.48;;;7.63;;
62574;SDS011;53112;45.602;11.904;2023-03-01T04:07:44;13.73;;;7.68;;
62574;SDS011;53112;45.602;11.904;2023-03-01T04:10:15;17.67;;;8.48;;
62574;SDS011;53112;45.602;11.904;2023-03-01T04:12:42;13.15;;;7.50;;
62574;SDS011;53112;45.602;11.904;2023-03-01T04:15:09;15.13;;;7.70;;
62574;SDS011;53112;45.602;11.904;2023-03-01T04:17:39;15.57;;;8.00;;
62574;SDS011;53112;45.602;11.904;2023-03-01T04:20:10;15.03;;;7.63;;
62574;SDS011;53112;45.602;11.904;2023-03-01T04:22:39;15.90;;;8.10;;
62574;SDS011;53112;45.602;11.904;2023-03-01T04:25:06;13.32;;;7.68;;
62574;SDS011;53112;45.602;11.904;2023-03-01T04:27:33;15.85;;;8.43;;
62574;SDS011;53112;45.602;11.904;2023-03-01T04:29:59;17.33;;;7.85;;
62574;SDS011;53112;45.602;11.904;2023-03-01T04:32:25;14.30;;;7.47;;
62574;SDS011;53112;45.602;11.904;2023-03-01T04:34:51;12.55;;;7.28;;
62574;SDS011;53112;45.602;11.904;2023-03-01T04:37:17;13.35;;;7.53;;
62574;SDS011;53112;45.602;11.904;2023-03-01T04:39:43;13.10;;;6.85;;
62574;SDS011;53112;45.602;11.904;2023-03-01T04:42:13;12.70;;;7.22;;
62574;SDS011;53112;45.602;11.904;2023-03-01T04:44:42;13.90;;;7.82;;
62574;SDS011;53112;45.602;11.904;2023-03-01T04:47:09;15.77;;;8.38;;
62574;SDS011;53112;45.602;11.904;2023-03-01T04:49:35;14.63;;;7.85;;
62574;SDS011;53112;45.602;11.904;2023-03-01T04:52:01;17.65;;;8.10;;
62574;SDS011;53112;45.602;11.904;2023-03-01T04:54:30;12.85;;;7.38;;
62574;SDS011;53112;45.602;11.904;2023-03-01T04:56:57;13.80;;;7.22;;
62574;SDS011;53112;45.602;11.904;2023-03-01T04:59:23;12.52;;;6.90;;
62574;SDS011;53112;45.602;11.904;2023-03-01T05:01:53;14.65;;;6.97;;
62574;SDS011;53112;45.602;11.904;2023-03-01T05:04:25;15.63;;;6.55;;
62574;SDS011;53112;45.602;11.904;2023-03-01T05:06:51;14.77;;;6.18;;
62574;SDS011;53112;45.602;11.904;2023-03-01T05:09:18;11.93;;;6.47;;
62574;SDS011;53112;45.602;11.904;2023-03-01T05:11:44;14.30;;;6.53;;
62574;SDS011;53112;45.602;11.904;2023-03-01T05:14:10;13.93;;;6.38;;
62574;SDS011;53112;45.602;11.904;2023-03-01T05:16:36;12.80;;;5.93;;
62574;SDS011;53112;45.602;11.904;2023-03-01T05:19:03;11.20;;;6.28;;
62574;SDS011;53112;45.602;11.904;2023-03-01T05:21:40;11.02;;;5.80;;
62574;SDS011;53112;45.602;11.904;2023-03-01T05:24:25;13.13;;;6.68;;
62574;SDS011;53112;45.602;11.904;2023-03-01T05:26:52;12.68;;;6.43;;
62574;SDS011;53112;45.602;11.904;2023-03-01T05:29:21;13.02;;;6.47;;
62574;SDS011;53112;45.602;11.904;2023-03-01T05:31:55;13.52;;;6.43;;
62574;SDS011;53112;45.602;11.904;2023-03-01T05:34:27;12.32;;;6.15;;
62574;SDS011;53112;45.602;11.904;2023-03-01T05:36:55;9.77;;;5.45;;
62574;SDS011;53112;45.602;11.904;2023-03-01T05:39:22;10.38;;;5.53;;
62574;SDS011;53112;45.602;11.904;2023-03-01T05:41:58;10.98;;;5.90;;
62574;SDS011;53112;45.602;11.904;2023-03-01T05:44:27;11.63;;;5.75;;
62574;SDS011;53112;45.602;11.904;2023-03-01T05:46:54;11.40;;;6.20;;
62574;SDS011;53112;45.602;11.904;2023-03-01T05:49:21;11.40;;;5.57;;
62574;SDS011;53112;45.602;11.904;2023-03-01T05:51:51;9.90;;;5.32;;
62574;SDS011;53112;45.602;11.904;2023-03-01T05:54:19;9.85;;;5.30;;
62574;SDS011;53112;45.602;11.904;2023-03-01T05:56:46;11.65;;;5.57;;
62574;SDS011;53112;45.602;11.904;2023-03-01T05:59:12;10.70;;;5.80;;
62574;SDS011;53112;45.602;11.904;2023-03-01T06:01:39;14.32;;;6.65;;
62574;SDS011;53112;45.602;11.904;2023-03-01T06:04:06;12.85;;;6.57;;
62574;SDS011;53112;45.602;11.904;2023-03-01T06:06:35;11.52;;;6.57;;
62574;SDS011;53112;45.602;11.904;2023-03-01T06:09:06;11.65;;;6.55;;
62574;SDS011;53112;45.602;11.904;2023-03-01T06:11:34;10.45;;;5.18;;
62574;SDS011;53112;45.602;11.904;2023-03-01T06:14:01;9.93;;;5.45;;
62574;SDS011;53112;45.602;11.904;2023-03-01T06:16:28;10.30;;;5.05;;
62574;SDS011;53112;45.602;11.904;2023-03-01T06:18:54;10.75;;;5.10;;
62574;SDS011;53112;45.602;11.904;2023-03-01T06:21:20;10.77;;;5.32;;
62574;SDS011;53112;45.602;11.904;2023-03-01T06:23:46;9.65;;;5.65;;
62574;SDS011;53112;45.602;11.904;2023-03-01T06:26:11;11.38;;;6.35;;
62574;SDS011;53112;45.602;11.904;2023-03-01T06:28:37;14.52;;;6.38;;
62574;SDS011;53112;45.602;11.904;2023-03-01T06:31:03;14.18;;;6.82;;
62574;SDS011;53112;45.602;11.904;2023-03-01T06:33:29;14.82;;;7.30;;
62574;SDS011;53112;45.602;11.904;2023-03-01T06:35:55;14.93;;;7.22;;
62574;SDS011;53112;45.602;11.904;2023-03-01T06:38:24;12.82;;;6.80;;
62574;SDS011;53112;45.602;11.904;2023-03-01T06:40:53;12.95;;;6.93;;
62574;SDS011;53112;45.602;11.904;2023-03-01T06:43:20;15.52;;;7.38;;
62574;SDS011;53112;45.602;11.904;2023-03-01T06:45:46;15.02;;;7.68;;
62574;SDS011;53112;45.602;11.904;2023-03-01T06:48:12;13.25;;;7.03;;
62574;SDS011;53112;45.602;11.904;2023-03-01T06:50:38;13.57;;;6.97;;
62574;SDS011;53112;45.602;11.904;2023-03-01T06:53:03;14.07;;;7.80;;
62574;SDS011;53112;45.602;11.904;2023-03-01T06:55:29;12.93;;;7.82;;
62574;SDS011;53112;45.602;11.904;2023-03-01T06:57:59;12.95;;;7.45;;
62574;SDS011;53112;45.602;11.904;2023-03-01T07:00:25;11.95;;;7.05;;
62574;SDS011;53112;45.602;11.904;2023-03-01T07:02:52;13.50;;;6.85;;
62574;SDS011;53112;45.602;11.904;2023-03-01T07:05:18;14.77;;;8.35;;
62574;SDS011;53112;45.602;11.904;2023-03-01T07:10:14;13.10;;;7.93;;
62574;SDS011;53112;45.602;11.904;2023-03-01T07:12:40;14.40;;;8.27;;
62574;SDS011;53112;45.602;11.904;2023-03-01T07:15:08;13.90;;;7.35;;
62574;SDS011;53112;45.602;11.904;2023-03-01T07:17:35;14.20;;;7.47;;
62574;SDS011;53112;45.602;11.904;2023-03-01T07:20:01;12.75;;;7.20;;
62574;SDS011;53112;45.602;11.904;2023-03-01T07:22:27;12.95;;;6.68;;
62574;SDS011;53112;45.602;11.904;2023-03-01T07:24:53;10.80;;;5.90;;
62574;SDS011;53112;45.602;11.904;2023-03-01T07:27:19;11.02;;;5.75;;
62574;SDS011;53112;45.602;11.904;2023-03-01T07:29:44;13.18;;;7.28;;
62574;SDS011;53112;45.602;11.904;2023-03-01T07:32:10;14.68;;;7.88;;
62574;SDS011;53112;45.602;11.904;2023-03-01T07:34:36;15.65;;;8.70;;
62574;SDS011;53112;45.602;11.904;2023-03-01T07:37:02;16.38;;;8.38;;
62574;SDS011;53112;45.602;11.904;2023-03-01T07:39:34;16.10;;;8.55;;
62574;SDS011;53112;45.602;11.904;2023-03-01T07:41:59;16.98;;;8.48;;
62574;SDS011;53112;45.602;11.904;2023-03-01T07:44:25;15.30;;;8.10;;
62574;SDS011;53112;45.602;11.904;2023-03-01T07:46:51;14.88;;;8.10;;
62574;SDS011;53112;45.602;11.904;2023-03-01T07:49:21;13.68;;;7.80;;
62574;SDS011;53112;45.602;11.904;2023-03-01T07:51:47;14.85;;;8.55;;
62574;SDS011;53112;45.602;11.904;2023-03-01T07:54:13;12.07;;;6.95;;
62574;SDS011;53112;45.602;11.904;2023-03-01T07:56:39;14.27;;;7.57;;
62574;SDS011;53112;45.602;11.904;2023-03-01T07:59:05;12.60;;;7.43;;
62574;SDS011;53112;45.602;11.904;2023-03-01T08:01:31;12.93;;;7.35;;
62574;SDS011;53112;45.602;11.904;2023-03-01T08:03:57;13.32;;;7.70;;
62574;SDS011;53112;45.602;11.904;2023-03-01T08:06:23;13.77;;;7.85;;
62574;SDS011;53112;45.602;11.904;2023-03-01T08:08:49;13.32;;;7.50;;
62574;SDS011;53112;45.602;11.904;2023-03-01T08:11:15;14.10;;;7.82;;
62574;SDS011;53112;45.602;11.904;2023-03-01T08:13:41;13.57;;;7.95;;
62574;SDS011;53112;45.602;11.904;2023-03-01T08:16:12;11.98;;;7.35;;
62574;SDS011;53112;45.602;11.904;2023-03-01T08:18:39;12.10;;;6.30;;
62574;SDS011;53112;45.602;11.904;2023-03-01T08:21:07;11.48;;;6.60;;
62574;SDS011;53112;45.602;11.904;2023-03-01T08:23:34;11.52;;;6.35;;
62574;SDS011;53112;45.602;11.904;2023-03-01T08:26:04;12.45;;;6.70;;
62574;SDS011;53112;45.602;11.904;2023-03-01T08:28:30;10.23;;;6.00;;
62574;SDS011;53112;45.602;11.904;2023-03-01T08:30:55;9.80;;;5.80;;
62574;SDS011;53112;45.602;11.904;2023-03-01T08:33:21;10.40;;;5.70;;
62574;SDS011;53112;45.602;11.904;2023-03-01T08:35:47;9.50;;;4.93;;
62574;SDS011;53112;45.602;11.904;2023-03-01T08:38:13;8.75;;;5.45;;
62574;SDS011;53112;45.602;11.904;2023-03-01T08:40:39;11.65;;;6.07;;
62574;SDS011;53112;45.602;11.904;2023-03-01T08:43:05;11.50;;;5.43;;
62574;SDS011;53112;45.602;11.904;2023-03-01T08:45:31;9.10;;;5.03;;
62574;SDS011;53112;45.602;11.904;2023-03-01T08:47:57;10.07;;;5.63;;
62574;SDS011;53112;45.602;11.904;2023-03-01T08:50:23;10.07;;;5.05;;
62574;SDS011;53112;45.602;11.904;2023-03-01T08:52:49;10.73;;;5.57;;
62574;SDS011;53112;45.602;11.904;2023-03-01T08:55:15;9.93;;;5.15;;
62574;SDS011;53112;45.602;11.904;2023-03-01T08:57:42;10.10;;;5.50;;
62574;SDS011;53112;45.602;11.904;2023-03-01T09:00:09;11.95;;;5.20;;
62574;SDS011;53112;45.602;11.904;2023-03-01T09:02:40;10.10;;;5.57;;
62574;SDS011;53112;45.602;11.904;2023-03-01T09:05:05;10.60;;;5.40;;
62574;SDS011;53112;45.602;11.904;2023-03-01T09:07:32;10.13;;;5.82;;
62574;SDS011;53112;45.602;11.904;2023-03-01T09:09:59;11.02;;;5.90;;
62574;SDS011;53112;45.602;11.904;2023-03-01T09:12:24;12.07;;;5.22;;
62574;SDS011;53112;45.602;11.904;2023-03-01T09:14:50;12.27;;;6.13;;
62574;SDS011;53112;45.602;11.904;2023-03-01T09:17:16;9.35;;;5.40;;
62574;SDS011;53112;45.602;11.904;2023-03-01T09:19:42;11.68;;;5.75;;
62574;SDS011;53112;45.602;11.904;2023-03-01T09:22:08;10.18;;;5.00;;
62574;SDS011;53112;45.602;11.904;2023-03-01T09:24:34;9.48;;;5.30;;
62574;SDS011;53112;45.602;11.904;2023-03-01T09:26:59;10.25;;;5.28;;
62574;SDS011;53112;45.602;11.904;2023-03-01T09:29:26;13.38;;;5.50;;
62574;SDS011;53112;45.602;11.904;2023-03-01T09:31:51;10.18;;;4.65;;
62574;SDS011;53112;45.602;11.904;2023-03-01T09:34:20;11.38;;;4.82;;
62574;SDS011;53112;45.602;11.904;2023-03-01T09:36:57;10.15;;;5.30;;
62574;SDS011;53112;45.602;11.904;2023-03-01T09:39:23;8.23;;;4.85;;
62574;SDS011;53112;45.602;11.904;2023-03-01T09:41:57;9.32;;;5.15;;
62574;SDS011;53112;45.602;11.904;2023-03-01T09:44:28;11.75;;;4.80;;
62574;SDS011;53112;45.602;11.904;2023-03-01T09:47:21;9.13;;;5.05;;
62574;SDS011;53112;45.602;11.904;2023-03-01T09:49:55;8.25;;;4.35;;
62574;SDS011;53112;45.602;11.904;2023-03-01T09:52:39;8.63;;;4.78;;
62574;SDS011;53112;45.602;11.904;2023-03-01T09:55:25;11.05;;;4.93;;
62574;SDS011;53112;45.602;11.904;2023-03-01T09:58:05;10.10;;;5.30;;
62574;SDS011;53112;45.602;11.904;2023-03-01T10:00:49;10.45;;;5.18;;
62574;SDS011;53112;45.602;11.904;2023-03-01T10:11:24;9.40;;;5.10;;
62574;SDS011;53112;45.602;11.904;2023-03-01T10:19:31;11.10;;;4.70;;
62574;SDS011;53112;45.602;11.904;2023-03-01T10:22:00;8.82;;;3.92;;
62574;SDS011;53112;45.602;11.904;2023-03-01T10:24:31;10.68;;;4.55;;
62574;SDS011;53112;45.602;11.904;2023-03-01T10:27:01;9.18;;;4.30;;
62574;SDS011;53112;45.602;11.904;2023-03-01T10:29:40;8.30;;;3.90;;
62574;SDS011;53112;45.602;11.904;2023-03-01T10:32:28;9.48;;;4.32;;
62574;SDS011;53112;45.602;11.904;2023-03-01T10:34:54;9.18;;;3.55;;
62574;SDS011;53112;45.602;11.904;2023-03-01T10:37:20;8.75;;;4.15;;
62574;SDS011;53112;45.602;11.904;2023-03-01T10:40:08;10.52;;;4.45;;
62574;SDS011;53112;45.602;11.904;2023-03-01T10:42:38;7.80;;;4.20;;
62574;SDS011;53112;45.602;11.904;2023-03-01T10:47:37;10.00;;;4.32;;
62574;SDS011;53112;45.602;11.904;2023-03-01T10:50:04;8.60;;;3.92;;
62574;SDS011;53112;45.602;11.904;2023-03-01T10:52:42;7.53;;;4.00;;
62574;SDS011;53112;45.602;11.904;2023-03-01T10:55:35;8.63;;;4.78;;
62574;SDS011;53112;45.602;11.904;2023-03-01T10:58:07;11.95;;;4.75;;
62574;SDS011;53112;45.602;11.904;2023-03-01T11:03:19;10.45;;;5.28;;
62574;SDS011;53112;45.602;11.904;2023-03-01T11:05:53;13.57;;;4.57;;
62574;SDS011;53112;45.602;11.904;2023-03-01T11:08:29;8.25;;;3.90;;
62574;SDS011;53112;45.602;11.904;2023-03-01T11:16:28;15.55;;;4.35;;
62574;SDS011;53112;45.602;11.904;2023-03-01T11:24:09;11.10;;;3.72;;
62574;SDS011;53112;45.602;11.904;2023-03-01T11:26:56;11.23;;;4.88;;
62574;SDS011;53112;45.602;11.904;2023-03-01T11:29:33;8.98;;;3.97;;
62574;SDS011;53112;45.602;11.904;2023-03-01T11:32:09;10.75;;;4.10;;
62574;SDS011;53112;45.602;11.904;2023-03-01T11:37:44;10.48;;;4.47;;
62574;SDS011;53112;45.602;11.904;2023-03-01T11:40:34;12.85;;;4.80;;
62574;SDS011;53112;45.602;11.904;2023-03-01T12:27:54;11.73;;;4.57;;
62574;SDS011;53112;45.602;11.904;2023-03-01T12:33:13;9.13;;;4.30;;
62574;SDS011;53112;45.602;11.904;2023-03-01T12:36:13;9.20;;;4.25;;
62574;SDS011;53112;45.602;11.904;2023-03-01T12:46:52;11.18;;;4.82;;
62574;SDS011;53112;45.602;11.904;2023-03-01T12:49:57;12.30;;;4.65;;
62574;SDS011;53112;45.602;11.904;2023-03-01T12:55:15;12.13;;;5.40;;
62574;SDS011;53112;45.602;11.904;2023-03-01T13:00:59;8.23;;;4.30;;
62574;SDS011;53112;45.602;11.904;2023-03-01T13:04:23;9.57;;;4.50;;
62574;SDS011;53112;45.602;11.904;2023-03-01T13:09:15;9.13;;;4.45;;
62574;SDS011;53112;45.602;11.904;2023-03-01T13:11:49;10.35;;;4.85;;
62574;SDS011;53112;45.602;11.904;2023-03-01T13:16:51;10.98;;;5.20;;
62574;SDS011;53112;45.602;11.904;2023-03-01T13:19:19;12.60;;;5.40;;
62574;SDS011;53112;45.602;11.904;2023-03-01T13:21:47;11.90;;;5.60;;
62574;SDS011;53112;45.602;11.904;2023-03-01T13:24:57;10.48;;;4.93;;
62574;SDS011;53112;45.602;11.904;2023-03-01T13:29:43;10.15;;;4.70;;
62574;SDS011;53112;45.602;11.904;2023-03-01T13:32:28;9.23;;;4.82;;
62574;SDS011;53112;45.602;11.904;2023-03-01T13:35:40;13.15;;;5.13;;
62574;SDS011;53112;45.602;11.904;2023-03-01T13:37:45;9.02;;;4.38;;
62574;SDS011;53112;45.602;11.904;2023-03-01T13:42:46;9.45;;;4.68;;
62574;SDS011;53112;45.602;11.904;2023-03-01T13:48:26;8.15;;;4.47;;
62574;SDS011;53112;45.602;11.904;2023-03-01T13:50:54;10.02;;;4.85;;
62574;SDS011;53112;45.602;11.904;2023-03-01T13:53:26;9.63;;;4.50;;
62574;SDS011;53112;45.602;11.904;2023-03-01T13:56:03;11.25;;;4.18;;
62574;SDS011;53112;45.602;11.904;2023-03-01T13:58:43;7.80;;;4.32;;
62574;SDS011;53112;45.602;11.904;2023-03-01T14:01:23;9.10;;;4.88;;
62574;SDS011;53112;45.602;11.904;2023-03-01T14:03:51;7.25;;;4.47;;
62574;SDS011;53112;45.602;11.904;2023-03-01T14:06:25;7.97;;;4.50;;
62574;SDS011;53112;45.602;11.904;2023-03-01T14:19:45;9.40;;;5.13;;
62574;SDS011;53112;45.602;11.904;2023-03-01T14:22:23;12.80;;;5.28;;
62574;SDS011;53112;45.602;11.904;2023-03-01T14:24:58;11.75;;;5.30;;
62574;SDS011;53112;45.602;11.904;2023-03-01T14:27:26;11.05;;;5.70;;
62574;SDS011;53112;45.602;11.904;2023-03-01T14:30:00;11.20;;;5.78;;
62574;SDS011;53112;45.602;11.904;2023-03-01T14:32:37;12.00;;;5.28;;
62574;SDS011;53112;45.602;11.904;2023-03-01T14:35:18;10.15;;;5.30;;
62574;SDS011;53112;45.602;11.904;2023-03-01T14:40:32;11.98;;;5.50;;
62574;SDS011;53112;45.602;11.904;2023-03-01T14:43:00;12.32;;;5.60;;
62574;SDS011;53112;45.602;11.904;2023-03-01T14:45:34;11.25;;;5.07;;
62574;SDS011;53112;45.602;11.904;2023-03-01T14:48:01;11.98;;;4.85;;
62574;SDS011;53112;45.602;11.904;2023-03-01T14:50:33;9.95;;;5.55;;
62574;SDS011;53112;45.602;11.904;2023-03-01T14:53:05;10.77;;;5.53;;
62574;SDS011;53112;45.602;11.904;2023-03-01T14:55:42;14.25;;;6.05;;
62574;SDS011;53112;45.602;11.904;2023-03-01T14:58:13;12.38;;;5.05;;
62574;SDS011;53112;45.602;11.904;2023-03-01T15:01:14;13.23;;;5.95;;
62574;SDS011;53112;45.602;11.904;2023-03-01T15:03:40;12.82;;;5.32;;
62574;SDS011;53112;45.602;11.904;2023-03-01T15:06:09;13.60;;;5.30;;
62574;SDS011;53112;45.602;11.904;2023-03-01T15:08:41;10.05;;;5.32;;
62574;SDS011;53112;45.602;11.904;2023-03-01T15:13:41;12.90;;;4.57;;
62574;SDS011;53112;45.602;11.904;2023-03-01T15:18:38;10.85;;;5.57;;
62574;SDS011;53112;45.602;11.904;2023-03-01T15:23:47;10.05;;;5.13;;
62574;SDS011;53112;45.602;11.904;2023-03-01T15:26:21;10.23;;;5.15;;
62574;SDS011;53112;45.602;11.904;2023-03-01T15:28:51;9.63;;;4.65;;
62574;SDS011;53112;45.602;11.904;2023-03-01T15:31:23;8.82;;;4.70;;
62574;SDS011;53112;45.602;11.904;2023-03-01T15:34:08;7.82;;;4.40;;
62574;SDS011;53112;45.602;11.904;2023-03-01T15:36:39;9.05;;;4.60;;
62574;SDS011;53112;45.602;11.904;2023-03-01T15:42:47;8.02;;;4.32;;
62574;SDS011;53112;45.602;11.904;2023-03-01T15:45:06;10.15;;;4.45;;
62574;SDS011;53112;45.602;11.904;2023-03-01T15:47:41;8.63;;;4.07;;
62574;SDS011;53112;45.602;11.904;2023-03-01T15:50:26;8.27;;;3.90;;
62574;SDS011;53112;45.602;11.904;2023-03-01T15:52:55;5.73;;;3.03;;
62574;SDS011;53112;45.602;11.904;2023-03-01T15:55:23;9.82;;;3.60;;
62574;SDS011;53112;45.602;11.904;2023-03-01T15:57:58;7.63;;;3.38;;
62574;SDS011;53112;45.602;11.904;2023-03-01T16:00:25;6.47;;;3.67;;
62574;SDS011;53112;45.602;11.904;2023-03-01T16:02:51;8.00;;;3.95;;
62574;SDS011;53112;45.602;11.904;2023-03-01T16:07:43;7.90;;;3.90;;
62574;SDS011;53112;45.602;11.904;2023-03-01T16:10:08;8.13;;;3.60;;
62574;SDS011;53112;45.602;11.904;2023-03-01T16:12:35;7.55;;;3.72;;
62574;SDS011;53112;45.602;11.904;2023-03-01T16:15:00;6.18;;;3.30;;
62574;SDS011;53112;45.602;11.904;2023-03-01T16:17:27;6.20;;;3.80;;
62574;SDS011;53112;45.602;11.904;2023-03-01T16:19:53;6.28;;;3.50;;
62574;SDS011;53112;45.602;11.904;2023-03-01T16:22:19;7.43;;;3.83;;
62574;SDS011;53112;45.602;11.904;2023-03-01T16:24:50;6.88;;;3.85;;
62574;SDS011;53112;45.602;11.904;2023-03-01T16:27:16;7.40;;;4.40;;
62574;SDS011;53112;45.602;11.904;2023-03-01T16:29:41;9.57;;;5.13;;
62574;SDS011;53112;45.602;11.904;2023-03-01T16:32:07;8.85;;;4.50;;
62574;SDS011;53112;45.602;11.904;2023-03-01T16:34:33;8.90;;;4.50;;
62574;SDS011;53112;45.602;11.904;2023-03-01T16:36:59;8.93;;;4.97;;
62574;SDS011;53112;45.602;11.904;2023-03-01T16:39:25;8.63;;;4.88;;
62574;SDS011;53112;45.602;11.904;2023-03-01T16:41:50;8.32;;;4.85;;
62574;SDS011;53112;45.602;11.904;2023-03-01T16:44:16;12.27;;;6.20;;
62574;SDS011;53112;45.602;11.904;2023-03-01T16:46:42;8.30;;;4.88;;
62574;SDS011;53112;45.602;11.904;2023-03-01T16:49:08;7.00;;;4.18;;
62574;SDS011;53112;45.602;11.904;2023-03-01T16:51:34;8.07;;;4.80;;
62574;SDS011;53112;45.602;11.904;2023-03-01T16:54:01;8.27;;;5.20;;
62574;SDS011;53112;45.602;11.904;2023-03-01T16:56:29;13.88;;;6.75;;
62574;SDS011;53112;45.602;11.904;2023-03-01T16:58:56;8.43;;;4.90;;
62574;SDS011;53112;45.602;11.904;2023-03-01T17:01:25;8.20;;;4.72;;
62574;SDS011;53112;45.602;11.904;2023-03-01T17:03:51;7.15;;;4.38;;
62574;SDS011;53112;45.602;11.904;2023-03-01T17:06:18;8.32;;;4.85;;
62574;SDS011;53112;45.602;11.904;2023-03-01T17:08:47;8.20;;;4.60;;
62574;SDS011;53112;45.602;11.904;2023-03-01T17:11:14;10.32;;;5.15;;
62574;SDS011;53112;45.602;11.904;2023-03-01T17:13:42;8.75;;;4.78;;